Time;durP1;ratioP1;P1;durP2;ratioP2;P2;SDS_P1;SDS_P2;PMS_P1;PMS_P2;Temp;Humidity;BMP_temperature;BMP_pressure;BME280_temperature;BME280_humidity;BME280_pressure;Samples;Min_cycle;Max_cycle;Signal;HPM_P1;HPM_P2
2024/03/02 00:00:38;;;;;;;27.08;16.17;;;;;;;9.24;71.79;98965.06;4948995;28;20120;-92
2024/03/02 00:03:04;;;;;;;30.60;16.42;;;;;;;9.25;71.31;98956.72;4965776;28;20053;-91
2024/03/02 00:05:29;;;;;;;30.17;17.50;;;;;;;9.27;71.54;98949.19;4965073;28;20460;-92
2024/03/02 00:07:56;;;;;;;29.27;17.27;;;;;;;9.38;71.80;98971.50;4949580;28;20484;-90
2024/03/02 00:10:29;;;;;;;30.92;16.92;;;;;;;9.23;71.61;98937.38;4966098;28;20022;-91
2024/03/02 00:12:58;;;;;;;24.55;16.38;;;;;;;9.38;71.27;98960.75;4950463;28;20420;-92
2024/03/02 00:15:36;;;;;;;30.95;17.27;;;;;;;9.51;71.07;98983.56;4950103;28;20030;-91
2024/03/02 00:18:01;;;;;;;28.02;15.38;;;;;;;9.40;70.76;98941.66;4999404;28;20476;-91
2024/03/02 00:20:27;;;;;;;25.20;15.43;;;;;;;9.36;70.83;98954.00;4947983;28;20041;-92
2024/03/02 00:23:01;;;;;;;26.80;16.30;;;;;;;9.49;71.38;98977.66;4948587;28;20022;-92
2024/03/02 00:25:27;;;;;;;26.23;15.90;;;;;;;9.33;71.38;98959.94;4964515;28;20034;-91
2024/03/02 00:27:52;;;;;;;29.50;16.65;;;;;;;9.16;71.71;98957.53;4963274;28;20026;-93
2024/03/02 00:30:44;;;;;;;28.77;16.20;;;;;;;9.36;71.05;98976.34;4948313;28;20037;-91
2024/03/02 00:33:09;;;;;;;24.70;15.73;;;;;;;9.27;71.28;98953.75;4980576;28;20572;-92
2024/03/02 00:35:34;;;;;;;30.83;16.65;;;;;;;9.29;70.86;98930.13;4963987;28;20106;-93
2024/03/02 00:38:06;;;;;;;31.05;17.38;;;;;;;9.25;71.18;98951.34;4965389;28;20030;-92
2024/03/02 00:40:32;;;;;;;31.92;16.95;;;;;;;9.25;71.33;98953.22;4953584;28;20031;-91
2024/03/02 00:42:57;;;;;;;29.83;16.77;;;;;;;9.08;71.65;98927.44;4964642;28;20034;-91
2024/03/02 00:45:24;;;;;;;27.17;16.83;;;;;;;9.18;72.05;98953.50;4948318;28;20230;-92
2024/03/02 00:47:50;;;;;;;32.15;17.05;;;;;;;9.05;71.60;98919.94;4979498;28;20483;-91
2024/03/02 00:50:15;;;;;;;31.92;17.23;;;;;;;8.95;72.25;98913.78;4963731;28;20034;-92
2024/03/02 00:52:41;;;;;;;30.10;17.15;;;;;;;8.95;72.28;98930.69;4961046;28;20050;-92
2024/03/02 00:55:07;;;;;;;24.52;15.93;;;;;;;8.99;72.52;98944.38;4942937;28;20413;-92
2024/03/02 00:57:34;;;;;;;24.65;15.25;;;;;;;9.16;72.09;98969.09;4945040;28;20182;-90
2024/03/02 01:00:00;;;;;;;26.90;15.65;;;;;;;9.05;71.97;98935.25;4960239;28;20093;-91
2024/03/02 01:02:25;;;;;;;28.73;16.02;;;;;;;9.14;71.67;98932.84;4943038;28;20477;-91
2024/03/02 01:04:51;;;;;;;25.48;15.63;;;;;;;9.15;71.31;98913.78;4944775;28;20461;-91
2024/03/02 01:07:16;;;;;;;25.60;15.23;;;;;;;9.13;71.02;98921.28;4944766;28;20042;-91
2024/03/02 01:09:42;;;;;;;25.88;15.18;;;;;;;9.31;71.66;98926.06;4961477;28;20050;-92
2024/03/02 01:12:07;;;;;;;27.40;16.38;;;;;;;9.20;71.42;98916.44;4945759;28;20023;-92
2024/03/02 01:14:33;;;;;;;25.85;15.65;;;;;;;9.27;71.39;98935.75;4945388;28;20045;-92
2024/03/02 01:16:58;;;;;;;24.83;14.23;;;;;;;9.26;70.93;98914.56;4946045;28;20039;-92
2024/03/02 01:19:24;;;;;;;29.08;14.02;;;;;;;9.17;71.24;98914.31;4943480;28;20034;-92
2024/03/02 01:21:50;;;;;;;26.63;14.20;;;;;;;9.32;71.27;98937.66;4944647;28;20046;-93
2024/03/02 01:24:16;;;;;;;21.52;14.15;;;;;;;9.33;71.13;98936.56;4959966;28;20486;-93
2024/03/02 01:26:42;;;;;;;33.30;13.40;;;;;;;9.15;70.65;98896.81;4943618;28;20038;-92
2024/03/02 01:29:08;;;;;;;26.33;13.38;;;;;;;9.26;70.43;98901.13;4944396;28;20092;-92
2024/03/02 01:31:34;;;;;;;18.48;11.57;;;;;;;9.29;70.04;98895.19;4956014;28;20041;-92
2024/03/02 01:34:02;;;;;;;21.63;12.20;;;;;;;9.34;70.18;98889.00;4955938;29;20138;-93
2024/03/02 01:36:27;;;;;;;22.08;11.48;;;;;;;9.41;70.05;98902.97;4962093;28;20498;-93
2024/03/02 01:38:53;;;;;;;25.83;12.57;;;;;;;9.40;69.98;98910.22;4955902;29;20042;-92
2024/03/02 01:41:21;;;;;;;22.02;12.20;;;;;;;9.16;70.71;98885.81;4957424;29;20082;-91
2024/03/02 01:43:47;;;;;;;19.05;11.65;;;;;;;9.23;70.63;98904.34;4956119;28;20487;-93
2024/03/02 01:46:12;;;;;;;23.90;12.48;;;;;;;9.27;70.73;98900.84;4971620;28;20040;-93
2024/03/02 01:48:38;;;;;;;23.08;11.60;;;;;;;9.35;70.86;98914.81;4956604;29;20035;-92
2024/03/02 01:51:06;;;;;;;22.13;11.73;;;;;;;9.15;70.81;98894.13;4959295;28;20055;-92
2024/03/02 01:53:31;;;;;;;21.15;10.98;;;;;;;9.23;70.66;98899.75;4975295;28;20034;-93
2024/03/02 01:56:01;;;;;;;26.33;11.18;;;;;;;9.26;70.51;98911.88;4950028;28;20496;-93
2024/03/02 01:58:26;;;;;;;18.83;10.27;;;;;;;9.28;70.03;98910.50;4928316;28;20030;-93
2024/03/02 02:00:52;;;;;;;19.58;10.45;;;;;;;9.26;69.98;98895.75;4939739;28;20023;-93
2024/03/02 02:03:17;;;;;;;20.70;11.45;;;;;;;9.24;69.90;98887.97;4943198;28;20026;-91
2024/03/02 02:05:43;;;;;;;19.45;10.38;;;;;;;9.30;69.99;98896.81;4958482;28;20058;-93
2024/03/02 02:08:08;;;;;;;16.70;9.65;;;;;;;9.41;69.94;98905.66;4943153;28;20501;-92
2024/03/02 02:10:34;;;;;;;17.63;9.52;;;;;;;9.25;69.24;98873.44;4943662;28;20027;-93
2024/03/02 02:12:59;;;;;;;20.05;10.25;;;;;;;9.28;70.12;98897.09;4959182;28;20026;-93
2024/03/02 02:15:29;;;;;;;17.98;9.93;;;;;;;9.18;70.26;98886.34;4947641;28;20061;-93
2024/03/02 02:17:55;;;;;;;29.15;14.35;;;;;;;9.10;71.11;98895.75;4946583;28;20034;-93
2024/03/02 02:20:20;;;;;;;23.08;14.05;;;;;;;9.24;71.22;98922.06;4947750;28;20046;-93
2024/03/02 02:23:05;;;;;;;27.20;15.40;;;;;;;9.14;70.99;98896.03;4965960;28;20026;-93
2024/03/02 02:25:30;;;;;;;25.10;14.75;;;;;;;9.17;70.51;98894.69;4982506;28;20370;-93
2024/03/02 02:27:56;;;;;;;23.35;14.60;;;;;;;9.09;71.27;98893.38;4981749;28;20084;-93
2024/03/02 02:30:24;;;;;;;28.75;15.02;;;;;;;8.99;71.91;98917.53;4966980;28;20042;-92
2024/03/02 02:32:50;;;;;;;25.45;15.38;;;;;;;8.95;72.64;98919.16;4965193;28;20097;-93
2024/03/02 02:35:15;;;;;;;32.65;16.13;;;;;;;8.76;73.00;98898.19;4982622;28;20027;-91
2024/03/02 02:37:44;;;;;;;25.90;15.80;;;;;;;8.68;72.55;98874.56;4982937;28;20030;-92
2024/03/02 02:40:10;;;;;;;28.58;15.00;;;;;;;8.83;71.93;98881.81;4983327;28;20026;-91
2024/03/02 02:42:36;;;;;;;29.02;16.02;;;;;;;8.89;72.50;98907.59;4999043;28;20033;-91
2024/03/02 02:45:01;;;;;;;27.92;14.82;;;;;;;8.82;72.70;98901.66;4982896;28;20030;-92
2024/03/02 02:47:29;;;;;;;24.73;14.35;;;;;;;8.85;72.78;98893.91;4966693;28;20029;-91
2024/03/02 02:49:57;;;;;;;27.83;15.07;;;;;;;8.85;72.39;98885.03;4975274;28;20079;-91
2024/03/02 02:52:22;;;;;;;25.10;14.55;;;;;;;8.87;72.48;98883.69;4961882;28;20050;-92
2024/03/02 02:54:48;;;;;;;26.42;14.30;;;;;;;8.86;72.17;98867.84;4966071;28;20563;-91
2024/03/02 02:57:13;;;;;;;27.27;14.57;;;;;;;8.93;72.25;98892.56;4966099;28;20109;-91
2024/03/02 02:59:39;;;;;;;23.02;13.50;;;;;;;8.82;72.04;98872.13;4946129;28;20027;-92
2024/03/02 03:02:05;;;;;;;29.30;15.07;;;;;;;8.79;72.43;98875.38;4946082;28;20022;-91
2024/03/02 03:04:30;;;;;;;28.70;14.52;;;;;;;8.75;72.62;98872.41;4945906;28;20417;-92
2024/03/02 03:06:56;;;;;;;25.42;14.20;;;;;;;8.68;72.32;98867.31;4945659;28;20034;-92
2024/03/02 03:09:21;;;;;;;22.38;13.02;;;;;;;8.98;71.91;98900.59;4946007;28;20042;-92
2024/03/02 03:11:47;;;;;;;22.17;13.18;;;;;;;9.04;71.81;98906.78;4945065;28;20074;-92
2024/03/02 03:14:12;;;;;;;22.83;13.07;;;;;;;8.80;72.17;98868.91;4978182;28;20470;-91
2024/03/02 03:16:38;;;;;;;24.08;13.88;;;;;;;8.82;72.96;98880.19;4945488;28;20070;-92
2024/03/02 03:19:03;;;;;;;27.40;13.65;;;;;;;8.86;72.89;98883.94;4945256;28;20046;-91
2024/03/02 03:21:29;;;;;;;34.42;13.80;;;;;;;8.95;72.53;98905.72;4955738;28;20002;-91
2024/03/02 03:23:55;;;;;;;24.23;13.52;;;;;;;8.89;72.69;98908.38;4948553;28;20030;-91
2024/03/02 03:26:20;;;;;;;27.63;13.48;;;;;;;8.73;72.60;98906.78;4961709;28;20022;-91
2024/03/02 03:28:46;;;;;;;28.58;14.73;;;;;;;8.61;72.98;98885.59;4981608;28;20113;-92
2024/03/02 03:31:12;;;;;;;28.88;14.25;;;;;;;8.61;72.76;98884.75;4973936;28;20504;-89
2024/03/02 03:33:37;;;;;;;25.88;14.57;;;;;;;8.60;73.28;98897.38;4946043;28;20030;-91
2024/03/02 03:36:03;;;;;;;29.17;14.75;;;;;;;8.61;73.51;98890.13;4949178;28;20030;-92
2024/03/02 03:38:29;;;;;;;24.27;14.25;;;;;;;8.60;73.45;98888.53;4961933;28;20034;-92
2024/03/02 03:40:55;;;;;;;22.73;14.30;;;;;;;8.57;73.39;98884.50;4946871;28;20117;-91
2024/03/02 03:43:20;;;;;;;25.42;14.63;;;;;;;8.73;73.69;98922.88;4960535;28;20042;-91
2024/03/02 03:45:48;;;;;;;26.83;14.70;;;;;;;8.58;73.37;98888.78;4957432;28;20037;-92
2024/03/02 03:48:13;;;;;;;22.63;14.55;;;;;;;8.60;73.35;98886.63;4964616;28;20061;-92
2024/03/02 03:50:39;;;;;;;22.42;14.07;;;;;;;8.67;73.18;98895.25;4955211;28;20477;-92
2024/03/02 03:53:05;;;;;;;29.65;16.27;;;;;;;8.69;73.12;98901.16;4957975;28;20066;-92
2024/03/02 03:55:30;;;;;;;28.10;15.63;;;;;;;8.60;73.47;98892.00;4957438;28;20043;-92
2024/03/02 03:57:56;;;;;;;25.02;15.05;;;;;;;8.62;73.33;98897.91;4958129;28;20027;-92
2024/03/02 04:00:21;;;;;;;26.88;15.27;;;;;;;8.73;72.88;98896.03;4957877;28;20409;-92
2024/03/02 04:02:47;;;;;;;24.15;14.18;;;;;;;8.66;73.09;98884.78;4956406;29;20119;-92
2024/03/02 04:05:12;;;;;;;28.05;15.30;;;;;;;8.58;73.05;98877.25;4958238;28;20386;-92
2024/03/02 04:07:40;;;;;;;25.98;15.50;;;;;;;8.75;73.16;98910.00;4957014;29;20532;-92
2024/03/02 04:10:09;;;;;;;24.27;15.32;;;;;;;8.53;73.49;98883.44;4957838;28;20031;-92
2024/03/02 04:12:36;;;;;;;31.92;14.40;;;;;;;8.50;73.60;98894.69;4966225;28;20035;-92
2024/03/02 04:15:03;;;;;;;23.23;14.88;;;;;;;8.53;73.25;98887.97;4958967;28;20413;-92
2024/03/02 04:17:29;;;;;;;26.10;14.82;;;;;;;8.54;74.30;98895.75;4957645;28;20028;-91
2024/03/02 04:19:55;;;;;;;28.80;15.00;;;;;;;8.59;73.18;98903.00;4957113;28;20034;-92
2024/03/02 04:22:20;;;;;;;27.35;14.38;;;;;;;8.46;73.71;98889.03;4941563;29;20055;-92
2024/03/02 04:24:46;;;;;;;22.75;14.57;;;;;;;8.62;73.92;98915.91;4959454;29;20038;-91
2024/03/02 04:27:11;;;;;;;25.15;14.80;;;;;;;8.43;73.86;98884.22;4952397;28;20465;-91
2024/03/02 04:29:37;;;;;;;24.85;14.50;;;;;;;8.54;73.19;98901.13;4961501;28;20497;-92
2024/03/02 04:32:02;;;;;;;25.60;14.52;;;;;;;8.51;73.69;98893.63;4942502;28;20030;-93
2024/03/02 04:34:28;;;;;;;25.83;14.63;;;;;;;8.61;73.42;98909.75;4959964;28;20035;-92
2024/03/02 04:36:53;;;;;;;28.75;14.65;;;;;;;8.46;74.14;98897.09;4961895;28;20038;-93
2024/03/02 04:39:19;;;;;;;25.50;15.68;;;;;;;8.54;73.24;98894.97;4961714;28;20022;-92
2024/03/02 04:41:44;;;;;;;24.70;15.00;;;;;;;8.53;74.10;98914.78;4958588;28;20489;-92
2024/03/02 04:44:10;;;;;;;28.35;14.98;;;;;;;8.53;74.08;98912.94;4959504;28;20033;-92
2024/03/02 04:46:35;;;;;;;28.33;15.65;;;;;;;8.37;74.15;98895.97;4958452;28;20027;-92
2024/03/02 04:49:01;;;;;;;32.20;15.43;;;;;;;8.45;73.83;98895.47;4942581;28;20031;-92
2024/03/02 04:51:26;;;;;;;25.98;14.25;;;;;;;8.55;73.50;98918.03;4941383;29;20047;-91
2024/03/02 04:53:52;;;;;;;28.88;14.65;;;;;;;8.44;73.56;98904.59;4925143;29;20031;-92
2024/03/02 04:56:39;;;;;;;27.85;15.20;;;;;;;8.42;74.08;98911.28;4941506;29;20027;-92
2024/03/02 04:59:06;;;;;;;24.42;14.82;;;;;;;8.43;73.66;98894.16;4932062;29;20041;-91
2024/03/02 05:01:31;;;;;;;24.58;14.20;;;;;;;8.57;73.06;98897.09;4924968;29;20023;-91
2024/03/02 05:03:57;;;;;;;25.15;13.95;;;;;;;8.76;72.56;98905.44;4925559;29;20038;-92
2024/03/02 05:06:23;;;;;;;26.05;14.50;;;;;;;8.89;72.51;98927.19;4926249;29;20035;-91
2024/03/02 05:08:49;;;;;;;25.23;14.60;;;;;;;8.69;72.57;98890.41;4927540;29;20498;-92
2024/03/02 05:14:15;;;;;;;28.17;15.70;;;;;;;8.38;74.20;98894.09;4893203;29;20603;-92
2024/03/02 05:16:41;;;;;;;25.52;14.52;;;;;;;8.39;73.93;98906.44;4959871;28;20043;-92
2024/03/02 05:19:07;;;;;;;29.60;15.32;;;;;;;8.32;73.77;98912.03;4971160;28;20410;-92
2024/03/02 05:21:33;;;;;;;26.15;14.88;;;;;;;8.42;73.72;98927.41;4953535;28;20088;-92
2024/03/02 05:23:59;;;;;;;23.42;14.38;;;;;;;8.42;73.95;98928.19;4972893;28;20077;-92
2024/03/02 05:26:24;;;;;;;25.17;14.73;;;;;;;8.37;73.47;98930.06;4960157;28;20081;-93
2024/03/02 05:28:50;;;;;;;24.08;14.23;;;;;;;8.40;73.22;98908.84;4960719;28;20030;-93
2024/03/02 05:31:15;;;;;;;27.63;14.80;;;;;;;8.48;73.26;98910.25;4959864;28;20035;-92
2024/03/02 05:33:41;;;;;;;33.75;16.42;;;;;;;8.65;72.92;98920.72;4954942;28;20027;-93
2024/03/02 05:36:07;;;;;;;25.23;15.23;;;;;;;8.65;72.75;98918.88;4972101;28;20034;-92
2024/03/02 05:38:34;;;;;;;26.25;13.80;;;;;;;8.79;73.08;98943.28;4942564;28;20031;-92
2024/03/02 05:40:59;;;;;;;25.30;14.27;;;;;;;8.85;72.32;98930.69;4951620;28;20469;-93
2024/03/02 05:43:25;;;;;;;27.70;14.40;;;;;;;8.88;72.50;98930.97;4940138;28;20034;-92
2024/03/02 05:45:51;;;;;;;26.35;15.45;;;;;;;8.95;72.20;98925.31;4956597;28;20030;-93
2024/03/02 05:48:16;;;;;;;33.97;14.95;;;;;;;8.79;72.79;98918.31;4972136;28;20031;-92
2024/03/02 05:50:42;;;;;;;22.00;13.85;;;;;;;8.54;73.50;98917.22;4961081;28;20035;-93
2024/03/02 05:53:07;;;;;;;25.70;14.77;;;;;;;8.55;73.67;98928.75;4960161;28;20047;-91
2024/03/02 05:55:36;;;;;;;30.17;14.63;;;;;;;8.46;73.22;98923.09;4960723;28;20518;-91
2024/03/02 06:00:32;;;;;;;26.77;14.45;;;;;;;8.62;72.93;98935.47;4944759;29;20019;-93
2024/03/02 06:02:58;;;;;;;26.63;14.85;;;;;;;8.78;72.27;98956.97;4960045;28;20019;-91
2024/03/02 06:05:26;;;;;;;28.05;14.95;;;;;;;8.83;72.56;98939.00;4945068;29;20397;-92
2024/03/02 06:07:51;;;;;;;26.65;14.63;;;;;;;8.84;71.80;98948.69;4960221;28;20027;-92
2024/03/02 06:10:17;;;;;;;24.13;13.73;;;;;;;8.90;71.97;98926.13;4944818;29;20102;-93
2024/03/02 06:12:43;;;;;;;23.63;14.70;;;;;;;9.01;71.48;98951.09;4960569;29;20051;-92
2024/03/02 06:15:11;;;;;;;27.50;14.43;;;;;;;9.05;71.59;98937.94;4959442;28;20023;-93
2024/03/02 06:17:36;;;;;;;29.27;14.13;;;;;;;9.09;71.75;98947.88;4979287;28;20042;-93
2024/03/02 06:20:07;;;;;;;28.88;15.98;;;;;;;8.85;72.13;98926.09;4963940;28;20034;-92
2024/03/02 06:22:33;;;;;;;27.65;14.75;;;;;;;8.69;72.68;98935.22;4962182;28;20099;-92
2024/03/02 06:24:59;;;;;;;25.13;13.95;;;;;;;8.50;72.99;98926.88;4961397;28;20054;-92
2024/03/02 06:27:24;;;;;;;31.02;14.00;;;;;;;8.84;72.54;98948.69;4962545;28;20070;-92
2024/03/02 06:29:53;;;;;;;25.90;15.30;;;;;;;8.70;73.24;98967.16;4962928;28;20042;-92
2024/03/02 06:32:18;;;;;;;25.33;14.65;;;;;;;8.77;72.49;98934.69;4964198;28;20023;-93
2024/03/02 06:34:44;;;;;;;27.80;16.27;;;;;;;8.93;72.20;98954.31;4962939;28;20038;-93
2024/03/02 06:37:09;;;;;;;30.75;15.75;;;;;;;8.65;73.08;98929.59;4963587;28;20089;-93
2024/03/02 06:39:36;;;;;;;27.30;15.57;;;;;;;8.90;72.35;98912.69;4981398;28;20030;-93
2024/03/02 06:42:01;;;;;;;35.38;22.95;;;;;;;9.05;71.84;98917.25;4947821;28;20054;-93
2024/03/02 06:44:27;;;;;;;28.38;16.65;;;;;;;8.93;71.25;98940.88;4946190;28;20051;-93
2024/03/02 06:46:52;;;;;;;27.98;14.38;;;;;;;9.15;71.54;98937.13;4962533;28;20042;-92
2024/03/02 06:49:17;;;;;;;28.75;15.10;;;;;;;9.31;70.84;98957.53;4940417;29;20023;-93
2024/03/02 06:51:44;;;;;;;29.58;15.20;;;;;;;9.47;70.68;98977.94;4934387;28;20035;-94
2024/03/02 06:54:10;;;;;;;23.20;14.82;;;;;;;9.65;70.35;98979.25;4936692;29;20023;-92
2024/03/02 06:56:35;;;;;;;25.40;14.43;;;;;;;9.48;70.12;98960.75;4943730;29;20034;-92
2024/03/02 06:59:01;;;;;;;27.27;15.45;;;;;;;9.62;70.21;98976.28;4958753;28;20038;-94
2024/03/02 07:01:27;;;;;;;27.90;14.38;;;;;;;9.80;69.71;98967.66;4980846;28;20030;-94
2024/03/02 07:03:53;;;;;;;22.48;14.93;;;;;;;9.64;68.53;98921.19;4960743;29;20047;-91
2024/03/02 07:06:18;;;;;;;28.42;16.65;;;;;;;9.63;68.65;98910.69;4987435;28;20022;-92
2024/03/02 07:08:44;;;;;;;34.22;18.35;;;;;;;9.81;68.44;98923.53;4965973;28;20033;-92
2024/03/02 07:11:09;;;;;;;32.17;15.52;;;;;;;9.71;68.59;98915.50;4947176;28;20031;-92
2024/03/02 07:13:35;;;;;;;28.05;14.75;;;;;;;10.03;68.05;98946.59;4944109;28;20093;-92
2024/03/02 07:18:33;;;;;;;22.77;14.50;;;;;;;9.91;68.27;98947.72;4961956;28;20148;-92
2024/03/02 07:21:00;;;;;;;23.15;14.07;;;;;;;9.89;68.34;98927.56;4947812;28;20019;-92
2024/03/02 07:23:30;;;;;;;26.50;15.30;;;;;;;9.99;68.41;98938.28;4939361;29;20015;-90
2024/03/02 07:25:56;;;;;;;23.17;13.88;;;;;;;10.11;67.69;98951.41;4948875;28;20512;-93
2024/03/02 07:28:22;;;;;;;22.20;12.38;;;;;;;9.96;67.31;98949.59;4963921;28;20408;-94
2024/03/02 07:30:58;;;;;;;24.40;13.85;;;;;;;10.18;67.45;98956.50;4959544;29;20074;-93
2024/03/02 07:33:23;;;;;;;20.80;12.80;;;;;;;10.15;67.14;98944.41;4928181;29;20047;-93
2024/03/02 07:35:49;;;;;;;25.35;13.90;;;;;;;10.48;65.78;98955.56;4928433;29;20039;-93
2024/03/02 07:38:14;;;;;;;27.83;12.82;;;;;;;10.36;65.28;98949.72;4928738;29;20041;-94
2024/03/02 07:40:40;;;;;;;23.30;11.30;;;;;;;10.14;65.76;98958.91;4927363;29;20035;-94
2024/03/02 07:43:05;;;;;;;19.40;11.57;;;;;;;10.38;65.61;98967.19;4928151;29;20032;-92
2024/03/02 07:45:31;;;;;;;23.30;12.52;;;;;;;10.38;65.82;98971.78;4927199;29;20117;-93
2024/03/02 07:47:57;;;;;;;19.80;11.38;;;;;;;10.42;65.39;98965.56;4943859;29;20449;-91
2024/03/02 07:50:22;;;;;;;20.08;13.43;;;;;;;10.63;65.11;98949.28;4928773;29;20031;-92
2024/03/02 07:52:48;;;;;;;20.75;12.43;;;;;;;10.62;65.30;98966.50;4927608;29;20047;-93
2024/03/02 07:55:14;;;;;;;24.20;13.38;;;;;;;10.29;66.01;98958.03;4928757;29;20141;-92
2024/03/02 07:57:40;;;;;;;23.75;12.93;;;;;;;10.37;65.95;98954.00;4927764;29;20425;-93
2024/03/02 08:00:08;;;;;;;21.88;12.48;;;;;;;10.54;66.12;98984.03;4926588;29;20034;-93
2024/03/02 08:02:37;;;;;;;20.35;11.98;;;;;;;10.38;65.81;98966.41;4930686;29;20035;-92
2024/03/02 08:05:03;;;;;;;21.85;12.75;;;;;;;10.40;66.07;98961.53;4930380;29;20027;-92
2024/03/02 08:07:28;;;;;;;18.65;10.70;;;;;;;10.37;65.87;98970.94;4942809;29;20038;-93
2024/03/02 08:09:54;;;;;;;22.67;13.43;;;;;;;10.39;65.89;98968.00;4926499;29;20123;-93
2024/03/02 08:12:21;;;;;;;27.10;13.88;;;;;;;10.50;65.40;98964.19;4926213;29;20056;-93
2024/03/02 08:14:47;;;;;;;21.77;12.40;;;;;;;10.54;64.73;98957.13;4943574;29;20091;-93
2024/03/02 08:17:12;;;;;;;23.45;12.70;;;;;;;10.83;64.88;98991.41;4926321;29;20031;-95
2024/03/02 08:19:38;;;;;;;27.70;14.63;;;;;;;10.74;64.75;98975.06;4925801;29;20039;-93
2024/03/02 08:22:03;;;;;;;28.45;13.82;;;;;;;10.60;64.99;98966.78;4926489;29;20027;-94
2024/03/02 08:24:29;;;;;;;22.85;12.40;;;;;;;10.48;64.96;98947.50;4941034;29;20170;-92
2024/03/02 08:26:54;;;;;;;21.10;12.85;;;;;;;10.58;65.40;98962.75;4935316;29;20485;-95
2024/03/02 08:29:20;;;;;;;26.33;12.82;;;;;;;10.60;65.17;98987.53;4942095;28;20030;-93
2024/03/02 08:31:45;;;;;;;21.73;12.80;;;;;;;10.75;64.80;98989.31;4947953;28;20437;-92
2024/03/02 08:34:11;;;;;;;18.80;11.73;;;;;;;10.72;64.83;98977.22;4982118;28;20110;-92
2024/03/02 08:36:36;;;;;;;22.60;11.90;;;;;;;10.78;64.19;98962.63;4981833;28;20026;-93
2024/03/02 08:39:03;;;;;;;18.23;11.00;;;;;;;10.78;63.98;98954.56;4981055;28;20034;-93
2024/03/02 08:41:28;;;;;;;16.48;10.88;;;;;;;10.64;64.14;98965.16;4981509;28;20022;-91
2024/03/02 08:43:54;;;;;;;21.35;11.57;;;;;;;10.66;64.03;98954.91;4996770;28;20041;-94
2024/03/02 08:46:19;;;;;;;21.48;11.73;;;;;;;10.87;63.61;98957.47;4981390;28;20477;-94
2024/03/02 08:48:45;;;;;;;18.92;10.85;;;;;;;10.87;64.15;98993.31;4982008;28;20030;-93
2024/03/02 08:51:10;;;;;;;15.73;10.85;;;;;;;10.61;64.44;98957.63;4981321;28;20054;-94
2024/03/02 08:53:36;;;;;;;18.63;11.18;;;;;;;10.76;64.73;98993.63;4947868;28;20034;-93
2024/03/02 08:56:05;;;;;;;19.73;12.02;;;;;;;10.83;64.48;98981.47;4931158;28;20030;-93
2024/03/02 08:58:31;;;;;;;26.80;11.60;;;;;;;11.03;64.32;98974.31;4928935;28;20401;-92
2024/03/02 09:01:02;;;;;;;18.40;10.95;;;;;;;11.09;64.06;98997.44;4927238;28;20035;-95
2024/03/02 09:03:28;;;;;;;21.98;12.13;;;;;;;10.98;64.36;99017.44;4945536;28;20552;-92
2024/03/02 09:05:55;;;;;;;24.80;12.57;;;;;;;11.00;63.65;99008.03;4980201;28;20042;-95
2024/03/02 09:08:24;;;;;;;19.25;12.07;;;;;;;11.18;63.15;98984.16;4947240;28;20049;-93
2024/03/02 09:10:49;;;;;;;21.88;12.18;;;;;;;11.29;62.74;98988.41;4977805;28;20102;-91
2024/03/02 09:13:15;;;;;;;22.80;12.57;;;;;;;11.16;63.09;98992.53;4962537;28;20482;-93
2024/03/02 09:15:42;;;;;;;19.15;11.60;;;;;;;11.26;62.52;98989.75;4946033;28;20085;-93
2024/03/02 09:18:07;;;;;;;23.27;13.68;;;;;;;11.41;62.36;98986.13;4947106;28;20408;-93
2024/03/02 09:20:33;;;;;;;19.08;12.15;;;;;;;11.36;62.16;98986.19;4962070;28;20035;-92
2024/03/02 09:22:58;;;;;;;40.72;21.00;;;;;;;11.51;62.10;98999.50;4960814;28;20018;-92
2024/03/02 09:25:25;;;;;;;22.20;13.27;;;;;;;11.69;61.77;99016.09;4946010;28;20026;-94
2024/03/02 09:27:51;;;;;;;18.85;12.10;;;;;;;11.47;61.94;98971.50;4963312;28;20033;-93
2024/03/02 09:30:16;;;;;;;20.48;11.80;;;;;;;11.37;62.08;98950.06;4961174;28;20027;-93
2024/03/02 09:32:42;;;;;;;22.55;11.65;;;;;;;11.51;61.93;98972.53;4945923;28;20077;-93
2024/03/02 09:35:07;;;;;;;26.08;12.80;;;;;;;11.52;61.91;98968.78;4945371;28;20031;-95
2024/03/02 09:37:33;;;;;;;20.90;11.60;;;;;;;11.62;61.12;98977.84;4935096;29;20501;-92
2024/03/02 09:40:00;;;;;;;21.38;10.98;;;;;;;11.64;61.30;99005.31;4949430;28;20045;-92
2024/03/02 09:42:26;;;;;;;17.90;10.95;;;;;;;11.46;61.97;98998.78;4929254;28;20102;-92
2024/03/02 09:44:52;;;;;;;17.85;10.75;;;;;;;11.62;61.34;98994.03;4936853;28;20082;-92
2024/03/02 09:47:18;;;;;;;20.45;11.80;;;;;;;11.63;61.06;98966.78;4946009;28;20031;-92
2024/03/02 09:49:44;;;;;;;25.38;11.40;;;;;;;11.89;60.18;98980.84;4947120;29;20039;-93
2024/03/02 09:52:10;;;;;;;17.35;10.77;;;;;;;12.02;59.97;99014.41;4927927;29;20059;-93
2024/03/02 09:54:35;;;;;;;18.63;9.85;;;;;;;11.84;59.99;98942.28;4910750;29;20052;-93
2024/03/02 09:57:04;;;;;;;18.45;10.38;;;;;;;11.79;59.99;98926.19;4911822;29;20031;-93
2024/03/02 09:59:30;;;;;;;19.60;10.63;;;;;;;11.55;60.45;98961.22;4912882;29;20027;-91
2024/03/02 10:01:58;;;;;;;16.48;9.68;;;;;;;11.74;60.24;98962.06;4913706;29;20034;-95
2024/03/02 10:04:39;;;;;;;18.52;11.02;;;;;;;11.98;59.51;98940.53;4914763;29;20035;-96
2024/03/02 10:07:23;;;;;;;17.00;10.77;;;;;;;11.87;59.97;98934.44;5186335;23;20042;-96
2024/03/02 10:09:48;;;;;;;16.05;10.15;;;;;;;11.96;59.51;98958.13;4949634;28;20093;-95
2024/03/02 10:12:15;;;;;;;16.10;9.95;;;;;;;12.03;59.20;98953.94;4945694;29;20494;-93
2024/03/02 10:14:41;;;;;;;17.38;11.10;;;;;;;11.91;59.58;98921.19;4942033;29;20030;-90
2024/03/02 10:17:08;;;;;;;18.02;10.80;;;;;;;11.80;60.19;98936.66;4941273;29;20094;-92
2024/03/02 10:19:36;;;;;;;22.00;11.25;;;;;;;11.64;61.00;98952.22;4957730;29;20102;-92
2024/03/02 10:22:03;;;;;;;19.48;10.80;;;;;;;11.81;60.61;98973.34;4941522;29;20022;-92
2024/03/02 10:24:41;;;;;;;16.38;10.25;;;;;;;11.94;60.65;98982.66;4954733;29;20106;-91
2024/03/02 10:27:31;;;;;;;16.77;10.55;;;;;;;11.92;60.13;99012.63;4940094;28;20105;-91
2024/03/02 10:29:56;;;;;;;16.02;9.48;;;;;;;12.02;59.91;99011.72;4944658;29;20023;-92
2024/03/02 10:32:22;;;;;;;15.32;8.88;;;;;;;12.21;59.13;98970.50;4926097;29;20043;-92
2024/03/02 10:34:50;;;;;;;20.13;9.63;;;;;;;12.06;60.00;98960.69;4926601;29;20109;-93
2024/03/02 10:37:17;;;;;;;19.08;10.60;;;;;;;12.29;59.47;98967.16;4929869;29;20045;-93
2024/03/02 10:39:42;;;;;;;18.23;9.75;;;;;;;12.46;58.62;98970.16;4912686;29;20478;-93
2024/03/02 10:42:08;;;;;;;18.80;9.77;;;;;;;12.66;57.88;98988.00;4929485;29;20047;-93
2024/03/02 10:44:37;;;;;;;15.00;9.73;;;;;;;12.67;57.65;98972.56;4929995;29;20039;-93
2024/03/02 10:47:07;;;;;;;23.92;10.35;;;;;;;12.65;57.57;98951.25;4928865;29;20031;-91
2024/03/02 10:49:32;;;;;;;14.45;9.57;;;;;;;12.57;58.16;98951.09;4946970;29;20114;-93
2024/03/02 10:51:59;;;;;;;16.25;9.48;;;;;;;12.58;58.23;98944.63;4914789;29;20027;-93
2024/03/02 10:54:29;;;;;;;19.30;10.57;;;;;;;12.65;57.97;98939.66;4943773;29;20166;-92
2024/03/02 10:56:57;;;;;;;20.17;10.23;;;;;;;12.65;58.27;98959.34;4957375;28;20038;-93
2024/03/02 10:59:35;;;;;;;15.30;9.65;;;;;;;12.41;58.73;98931.59;4965206;28;20063;-93
2024/03/02 11:02:03;;;;;;;19.70;9.48;;;;;;;12.64;58.68;98957.75;4960047;28;20022;-93
2024/03/02 11:04:29;;;;;;;18.17;9.65;;;;;;;12.53;58.12;98932.81;4984452;28;20055;-93
2024/03/02 11:07:00;;;;;;;20.60;11.00;;;;;;;12.23;59.07;98917.03;4983829;28;20144;-93
2024/03/02 11:09:29;;;;;;;15.52;9.50;;;;;;;12.44;58.02;98942.63;4952591;28;20033;-93
2024/03/02 11:12:23;;;;;;;18.10;9.02;;;;;;;12.65;58.03;98961.25;4969090;28;20449;-93
2024/03/02 11:14:48;;;;;;;42.67;10.98;;;;;;;12.80;58.30;98988.03;4932100;28;20027;-94
2024/03/02 11:17:15;;;;;;;22.67;9.93;;;;;;;12.65;58.36;98975.56;4943001;28;20057;-93
2024/03/02 11:19:41;;;;;;;13.98;8.13;;;;;;;12.93;58.15;98986.53;4981916;28;20022;-93
2024/03/02 11:22:08;;;;;;;14.40;8.80;;;;;;;12.91;57.20;98945.47;4965930;28;20030;-93
2024/03/02 11:24:33;;;;;;;16.25;9.25;;;;;;;13.09;56.85;98960.03;4964956;28;20085;-93
2024/03/02 11:27:01;;;;;;;13.68;8.82;;;;;;;13.28;56.68;98968.09;4957877;28;20023;-93
2024/03/02 11:29:44;;;;;;;16.05;8.88;;;;;;;13.25;56.64;98944.38;4927374;29;20035;-92